createdAt,value
2018-02-15T00:00:40.938Z,59.00
2018-02-15T00:03:08.460Z,59.00
2018-02-15T00:05:35.900Z,58.90
2018-02-15T00:08:03.377Z,58.80
2018-02-15T00:10:30.925Z,59.00
2018-02-15T00:12:58.328Z,59.20
2018-02-15T00:15:25.852Z,59.10
2018-02-15T00:17:53.297Z,59.10
2018-02-15T00:20:20.760Z,59.20
2018-02-15T00:22:48.199Z,59.20
2018-02-15T00:25:15.624Z,59.20
2018-02-15T00:27:43.851Z,59.60
2018-02-15T00:30:11.287Z,59.60
2018-02-15T00:32:38.720Z,59.60
2018-02-15T00:35:06.929Z,59.50
2018-02-15T00:37:34.348Z,59.50
2018-02-15T00:40:02.559Z,59.70
2018-02-15T00:42:30.024Z,59.60
2018-02-15T00:44:57.460Z,59.60
2018-02-15T00:47:24.941Z,59.70
2018-02-15T00:49:52.367Z,59.90
2018-02-15T00:52:19.788Z,60.00
2018-02-15T00:54:47.224Z,60.00
2018-02-15T00:57:14.676Z,60.00
2018-02-15T00:59:42.109Z,60.00
2018-02-15T01:02:09.584Z,60.00
2018-02-15T01:04:37.008Z,60.20
2018-02-15T01:07:04.435Z,60.40
2018-02-15T01:09:31.875Z,60.40
2018-02-15T01:11:59.413Z,60.50
2018-02-15T01:14:26.870Z,60.60
2018-02-15T01:16:54.326Z,61.30
2018-02-15T01:19:21.753Z,61.70
2018-02-15T01:21:49.241Z,62.40
2018-02-15T01:24:16.696Z,63.60
2018-02-15T01:26:44.128Z,64.90
2018-02-15T01:29:11.615Z,66.10
2018-02-15T01:31:39.063Z,67.00
2018-02-15T01:34:06.524Z,67.90
2018-02-15T01:36:33.953Z,69.00
2018-02-15T01:39:01.388Z,70.10
2018-02-15T01:41:29.576Z,72.40
2018-02-15T01:43:57.763Z,72.40
2018-02-15T01:46:25.198Z,72.40
2018-02-15T01:48:53.392Z,73.60
2018-02-15T01:51:20.824Z,73.60
2018-02-15T01:53:49.040Z,74.90
2018-02-15T01:56:16.508Z,74.90
2018-02-15T01:58:43.944Z,75.40
2018-02-15T02:01:11.381Z,76.20
2018-02-15T02:03:39.572Z,77.50
2018-02-15T02:06:07.009Z,77.50
2018-02-15T02:08:35.217Z,78.80
2018-02-15T02:11:02.636Z,78.80
2018-02-15T02:13:30.828Z,80.10
2018-02-15T02:15:58.269Z,80.10
2018-02-15T02:18:26.483Z,81.00
2018-02-15T02:20:53.916Z,81.00
2018-02-15T02:23:21.351Z,81.40
2018-02-15T02:25:49.576Z,82.60
2018-02-15T02:28:17.036Z,82.60
2018-02-15T02:30:44.492Z,83.00
2018-02-15T02:33:12.049Z,83.50
2018-02-15T02:35:39.452Z,84.00
2018-02-15T02:38:07.680Z,84.90
2018-02-15T02:40:35.116Z,84.90
2018-02-15T02:43:02.543Z,85.30
2018-02-15T02:45:30.764Z,86.60
2018-02-15T02:47:58.223Z,85.90
2018-02-15T02:50:25.680Z,86.40
2018-02-15T02:52:53.131Z,86.80
2018-02-15T02:55:20.552Z,87.10
2018-02-15T02:57:48.740Z,87.50
2018-02-15T03:00:16.223Z,87.50
2018-02-15T03:02:43.653Z,87.60
2018-02-15T03:05:11.085Z,87.80
2018-02-15T03:07:38.519Z,88.00
2018-02-15T03:10:06.056Z,88.10
2018-02-15T03:12:33.484Z,88.20
2018-02-15T03:15:00.968Z,88.40
2018-02-15T03:17:28.399Z,88.60
2018-02-15T03:19:55.884Z,89.00
2018-02-15T03:22:23.340Z,89.20
2018-02-15T03:24:50.797Z,89.30
2018-02-15T03:27:18.256Z,89.40
2018-02-15T03:29:45.696Z,89.50
2018-02-15T03:32:13.121Z,89.70
2018-02-15T03:34:41.316Z,90.00
2018-02-15T03:37:08.764Z,90.00
2018-02-15T03:39:36.956Z,90.10
2018-02-15T03:42:04.384Z,90.10
2018-02-15T03:44:32.594Z,90.20
2018-02-15T03:47:00.014Z,90.20
2018-02-15T03:49:28.212Z,90.30
2018-02-15T03:51:55.653Z,90.30
2018-02-15T03:54:23.869Z,90.40
2018-02-15T03:56:51.300Z,90.40
2018-02-15T03:59:18.746Z,90.50
2018-02-15T04:01:46.936Z,90.50
2018-02-15T04:04:14.411Z,90.50
2018-02-15T04:06:41.884Z,90.60
2018-02-15T04:09:09.332Z,90.70
2018-02-15T04:11:36.788Z,90.80
2018-02-15T04:14:04.235Z,90.80
2018-02-15T04:16:31.668Z,90.80
2018-02-15T04:18:59.156Z,90.80
2018-02-15T04:21:26.607Z,90.80
2018-02-15T04:23:54.072Z,90.80
2018-02-15T04:26:21.632Z,90.80
2018-02-15T04:28:49.071Z,90.80
2018-02-15T04:31:16.496Z,90.80
2018-02-15T04:33:44.720Z,90.90
2018-02-15T04:36:12.178Z,90.90
2018-02-15T04:38:39.607Z,90.90
2018-02-15T04:41:07.028Z,90.90
2018-02-15T04:43:34.650Z,90.90
2018-02-15T04:46:02.047Z,90.90
2018-02-15T04:48:29.566Z,90.90
2018-02-15T04:50:57.017Z,91.00
2018-02-15T04:53:24.444Z,91.00
2018-02-15T04:55:52.633Z,91.10
2018-02-15T04:58:20.071Z,91.10
2018-02-15T05:00:48.292Z,91.20
2018-02-15T05:03:15.719Z,91.10
2018-02-15T05:05:43.156Z,91.20
2018-02-15T05:08:11.370Z,91.20
2018-02-15T05:10:38.788Z,91.20
2018-02-15T05:13:07.113Z,91.30
2018-02-15T05:15:34.557Z,91.30
2018-02-15T05:18:01.982Z,91.40
2018-02-15T05:20:30.198Z,91.40
2018-02-15T05:22:57.659Z,91.40
2018-02-15T05:25:25.097Z,91.40
2018-02-15T05:27:52.574Z,91.40
2018-02-15T05:30:20.033Z,91.50
2018-02-15T05:32:47.452Z,91.50
2018-02-15T05:35:14.908Z,91.50
2018-02-15T05:37:42.337Z,91.60
2018-02-15T05:40:09.760Z,91.60
2018-02-15T05:42:37.214Z,91.60
2018-02-15T05:45:04.640Z,91.60
2018-02-15T05:47:32.068Z,91.60
2018-02-15T05:50:00.282Z,91.70
2018-02-15T05:52:27.707Z,91.70
2018-02-15T05:54:55.932Z,91.70
2018-02-15T05:57:23.374Z,91.70
2018-02-15T05:59:50.795Z,91.70
2018-02-15T06:02:18.992Z,91.80
2018-02-15T06:04:46.470Z,91.80
2018-02-15T06:07:13.961Z,91.80
2018-02-15T06:09:41.462Z,91.80
2018-02-15T06:12:09.726Z,91.80
2018-02-15T06:14:37.975Z,91.90
2018-02-15T06:17:05.455Z,91.80
2018-02-15T06:19:32.952Z,91.90
2018-02-15T06:22:00.435Z,91.90
2018-02-15T06:24:27.937Z,91.90
2018-02-15T06:26:56.317Z,91.90
2018-02-15T06:29:24.563Z,91.90
2018-02-15T06:31:52.150Z,91.90
2018-02-15T06:34:20.420Z,91.90
2018-02-15T06:36:49.402Z,91.90
2018-02-15T06:39:16.882Z,91.90
2018-02-15T06:41:45.157Z,92.00
2018-02-15T06:44:13.402Z,92.10
2018-02-15T06:46:40.996Z,92.00
2018-02-15T06:49:09.254Z,92.10
2018-02-15T06:51:36.734Z,92.10
2018-02-15T06:54:04.986Z,92.10
2018-02-15T06:56:34.006Z,92.10
2018-02-15T06:59:02.258Z,92.10
2018-02-15T07:01:29.742Z,92.10
2018-02-15T07:03:58.110Z,92.20
2018-02-15T07:06:26.361Z,92.20
2018-02-15T07:08:53.942Z,92.20
2018-02-15T07:11:22.206Z,92.20
2018-02-15T07:13:49.793Z,92.20
2018-02-15T07:16:18.054Z,92.20
2018-02-15T07:18:46.316Z,92.30
2018-02-15T07:21:13.799Z,92.20
2018-02-15T07:23:42.048Z,92.30
2018-02-15T07:26:09.622Z,92.30
2018-02-15T07:28:37.870Z,92.40
2018-02-15T07:31:05.347Z,92.30
2018-02-15T07:33:32.918Z,92.40
2018-02-15T07:36:01.172Z,92.40
2018-02-15T07:38:28.646Z,92.40
2018-02-15T07:40:56.926Z,92.60
2018-02-15T07:43:25.170Z,92.50
2018-02-15T07:45:52.663Z,92.40
2018-02-15T07:48:20.923Z,92.50
2018-02-15T07:50:48.402Z,92.50
2018-02-15T07:53:16.654Z,92.50
2018-02-15T07:55:44.149Z,92.50
2018-02-15T07:58:11.630Z,92.50
2018-02-15T08:00:39.118Z,92.50
2018-02-15T08:03:06.613Z,92.50
2018-02-15T08:05:34.870Z,92.50
2018-02-15T08:08:02.437Z,92.50
2018-02-15T08:10:30.721Z,92.50
2018-02-15T08:12:58.969Z,92.50
2018-02-15T08:15:27.218Z,92.60
2018-02-15T08:17:54.746Z,92.60
2018-02-15T08:20:22.290Z,92.60
2018-02-15T08:22:50.574Z,92.60
2018-02-15T08:25:18.038Z,92.60
2018-02-15T08:27:45.514Z,92.60
2018-02-15T08:30:13.036Z,92.70
2018-02-15T08:32:41.298Z,92.70
2018-02-15T08:35:08.779Z,92.70
2018-02-15T08:37:37.044Z,92.70
2018-02-15T08:40:05.318Z,92.70
2018-02-15T08:42:33.566Z,92.80
2018-02-15T08:45:01.042Z,92.70
2018-02-15T08:47:28.614Z,92.80
2018-02-15T08:49:56.174Z,93.10
2018-02-15T08:52:24.422Z,92.80
2018-02-15T08:54:52.006Z,92.80
2018-02-15T08:57:20.284Z,92.80
2018-02-15T08:59:48.561Z,92.90
2018-02-15T09:02:16.825Z,93.20
2018-02-15T09:04:44.306Z,92.90
2018-02-15T09:07:11.850Z,92.90
2018-02-15T09:09:40.118Z,92.90
2018-02-15T09:12:07.686Z,92.90
2018-02-15T09:14:35.968Z,93.00
2018-02-15T09:17:04.222Z,93.00
2018-02-15T09:19:31.702Z,93.00
2018-02-15T09:21:59.978Z,93.00
2018-02-15T09:24:28.242Z,93.00
2018-02-15T09:26:55.720Z,93.00
2018-02-15T09:29:23.964Z,93.10
2018-02-15T09:31:51.558Z,93.00
2018-02-15T09:34:19.855Z,93.10
2018-02-15T09:36:48.074Z,93.10
2018-02-15T09:39:15.590Z,93.10
2018-02-15T09:41:43.070Z,93.10
2018-02-15T09:44:10.570Z,93.10
2018-02-15T09:46:38.831Z,93.20
2018-02-15T09:49:06.310Z,93.20
2018-02-15T09:51:34.617Z,93.20
2018-02-15T09:54:02.111Z,93.20
2018-02-15T09:56:29.595Z,93.20
2018-02-15T09:58:57.846Z,93.30
2018-02-15T10:01:25.346Z,93.20
2018-02-15T10:03:53.591Z,93.30
2018-02-15T10:06:22.582Z,93.30
2018-02-15T10:08:50.158Z,93.30
2018-02-15T10:11:18.434Z,93.50
2018-02-15T10:13:46.686Z,93.30
2018-02-15T10:16:14.185Z,93.30
2018-02-15T10:18:42.439Z,93.40
2018-02-15T10:21:09.918Z,93.40
2018-02-15T10:23:38.275Z,93.40
2018-02-15T10:26:05.854Z,93.40
2018-02-15T10:28:33.430Z,93.50
2018-02-15T10:31:01.694Z,93.50
2018-02-15T10:33:29.266Z,93.50
2018-02-15T10:35:57.539Z,93.50
2018-02-15T10:38:25.033Z,93.50
2018-02-15T10:40:52.513Z,93.50
2018-02-15T10:43:19.990Z,93.50
2018-02-15T10:45:47.506Z,93.60
2018-02-15T10:48:15.052Z,93.60
2018-02-15T10:50:42.608Z,93.60
2018-02-15T10:53:11.071Z,93.60
2018-02-15T10:55:39.326Z,93.70
2018-02-15T10:58:06.802Z,93.70
2018-02-15T11:00:40.822Z,93.70
2018-02-15T11:03:14.936Z,93.80
2018-02-15T11:05:45.762Z,93.80
2018-02-15T11:08:14.043Z,93.80
2018-02-15T11:10:42.314Z,93.80
2018-02-15T11:13:10.590Z,94.10
2018-02-15T11:15:38.854Z,94.20
2018-02-15T11:18:06.332Z,93.80
2018-02-15T11:20:34.598Z,93.90
2018-02-15T11:23:02.076Z,93.90
2018-02-15T11:25:30.326Z,94.00
2018-02-15T11:27:57.825Z,94.00
2018-02-15T11:30:25.361Z,94.00
2018-02-15T11:32:53.606Z,94.00
2018-02-15T11:35:21.912Z,94.00
2018-02-15T11:37:50.188Z,94.10
2018-02-15T11:40:19.348Z,94.10
2018-02-15T11:42:46.943Z,94.10
2018-02-15T11:45:15.206Z,94.20
2018-02-15T11:47:42.784Z,94.20
2018-02-15T11:50:11.057Z,94.20
2018-02-15T11:52:39.327Z,94.20
2018-02-15T11:55:07.634Z,94.30
2018-02-15T11:57:35.126Z,94.30
2018-02-15T12:00:02.620Z,94.30
2018-02-15T12:02:30.867Z,94.70
2018-02-15T12:04:58.366Z,94.40
2018-02-15T12:07:26.642Z,94.40
2018-02-15T12:09:54.942Z,94.40
2018-02-15T12:12:22.478Z,94.40
2018-02-15T12:14:50.726Z,94.50
2018-02-15T12:17:18.361Z,94.50
2018-02-15T12:19:45.966Z,94.50
2018-02-15T12:22:14.219Z,94.90
2018-02-15T12:24:42.502Z,94.90
2018-02-15T12:27:10.008Z,94.60
2018-02-15T12:29:37.506Z,94.60
2018-02-15T12:32:05.105Z,94.60
2018-02-15T12:34:33.386Z,94.70
2018-02-15T12:37:01.648Z,94.70
2018-02-15T12:39:29.129Z,94.70
2018-02-15T12:41:56.670Z,94.70
2018-02-15T12:44:24.941Z,94.80
2018-02-15T12:46:53.185Z,94.90
2018-02-15T12:49:20.786Z,94.80
2018-02-15T12:51:49.048Z,94.90
2018-02-15T12:54:17.310Z,94.90
2018-02-15T12:56:44.897Z,94.90
2018-02-15T12:59:13.162Z,94.90
2018-02-15T13:01:42.296Z,95.00
2018-02-15T13:04:09.801Z,94.90
2018-02-15T13:06:37.289Z,94.90
2018-02-15T13:09:05.544Z,95.10
2018-02-15T13:11:34.591Z,95.10
2018-02-15T13:14:02.106Z,95.10
2018-02-15T13:16:42.193Z,95.10
2018-02-15T13:19:21.742Z,95.10
2018-02-15T13:21:49.248Z,95.10
2018-02-15T13:24:18.294Z,95.10
2018-02-15T13:26:45.782Z,95.10
2018-02-15T13:29:13.286Z,95.10
2018-02-15T13:31:41.546Z,95.10
2018-02-15T13:34:09.026Z,95.10
2018-02-15T13:36:36.527Z,95.10
2018-02-15T13:39:04.026Z,95.10
2018-02-15T13:41:32.294Z,95.10
2018-02-15T13:44:00.618Z,95.10
2018-02-15T13:46:28.091Z,95.10
2018-02-15T13:48:55.594Z,95.10
2018-02-15T13:51:23.974Z,95.10
2018-02-15T13:53:52.218Z,95.10
2018-02-15T13:56:19.735Z,95.10
2018-02-15T13:58:47.250Z,95.00
2018-02-15T14:01:14.731Z,94.80
2018-02-15T14:03:42.979Z,94.70
2018-02-15T14:06:12.072Z,94.60
2018-02-15T14:08:41.102Z,94.40
2018-02-15T14:11:08.607Z,94.40
2018-02-15T14:13:36.103Z,94.30
2018-02-15T14:16:04.348Z,94.10
2018-02-15T14:18:31.944Z,94.10
2018-02-15T14:21:00.212Z,93.80
2018-02-15T14:23:28.490Z,93.60
2018-02-15T14:25:56.790Z,93.40
2018-02-15T14:28:24.290Z,93.40
2018-02-15T14:30:51.783Z,93.30
2018-02-15T14:33:20.031Z,92.80
2018-02-15T14:35:47.666Z,92.80
2018-02-15T14:38:15.162Z,92.60
2018-02-15T14:40:44.172Z,92.70
2018-02-15T14:43:12.446Z,92.60
2018-02-15T14:45:40.690Z,92.50
2018-02-15T14:48:08.170Z,92.50
2018-02-15T14:50:35.654Z,92.30
2018-02-15T14:53:03.201Z,92.40
2018-02-15T14:55:31.466Z,91.90
2018-02-15T14:57:59.063Z,91.90
2018-02-15T15:00:26.555Z,91.60
2018-02-15T15:02:54.066Z,91.40
2018-02-15T15:05:22.430Z,90.90
2018-02-15T15:07:50.861Z,91.00
2018-02-15T15:10:18.353Z,90.90
2018-02-15T15:12:45.878Z,91.20
2018-02-15T15:15:13.372Z,91.20
2018-02-15T15:17:41.662Z,91.30
2018-02-15T15:20:09.971Z,90.70
2018-02-15T15:22:37.602Z,90.70
2018-02-15T15:25:05.852Z,90.10
2018-02-15T15:27:33.356Z,90.10
2018-02-15T15:30:00.842Z,89.80
2018-02-15T15:32:28.323Z,89.70
2018-02-15T15:34:55.944Z,89.30
2018-02-15T15:37:23.474Z,89.00
2018-02-15T15:39:51.725Z,88.40
2018-02-15T15:42:20.066Z,88.20
2018-02-15T15:44:47.574Z,88.20
2018-02-15T15:47:15.862Z,88.60
2018-02-15T15:49:44.138Z,88.10
2018-02-15T15:52:12.378Z,88.20
2018-02-15T15:54:39.878Z,88.20
2018-02-15T15:57:08.282Z,88.40
2018-02-15T15:59:35.813Z,88.40
2018-02-15T16:02:04.066Z,88.80
2018-02-15T16:04:32.360Z,88.80
2018-02-15T16:07:00.641Z,88.90
2018-02-15T16:09:28.902Z,88.90
2018-02-15T16:11:56.406Z,88.80
2018-02-15T16:14:24.726Z,89.40
2018-02-15T16:16:52.202Z,88.90
2018-02-15T16:19:20.478Z,88.90
2018-02-15T16:21:48.754Z,88.90
2018-02-15T16:24:17.039Z,88.80
2018-02-15T16:26:45.308Z,89.00
2018-02-15T16:29:13.564Z,88.90
2018-02-15T16:31:41.042Z,88.90
2018-02-15T16:34:09.312Z,89.10
2018-02-15T16:36:38.341Z,89.10
2018-02-15T16:39:05.879Z,89.10
2018-02-15T16:41:34.182Z,89.20
2018-02-15T16:44:01.725Z,89.10
2018-02-15T16:46:29.210Z,89.10
2018-02-15T16:48:57.047Z,89.10
2018-02-15T16:51:25.349Z,89.20
2018-02-15T16:53:53.645Z,89.10
2018-02-15T16:56:21.239Z,89.10
2018-02-15T16:58:49.526Z,90.00
2018-02-15T17:01:17.788Z,89.30
2018-02-15T17:03:45.366Z,89.30
2018-02-15T17:06:13.650Z,89.50
2018-02-15T17:08:41.201Z,89.50
2018-02-15T17:11:09.458Z,89.60
2018-02-15T17:13:36.946Z,89.50
2018-02-15T17:16:05.214Z,89.70
2018-02-15T17:18:33.478Z,89.90
2018-02-15T17:21:01.727Z,90.10
2018-02-15T17:23:29.210Z,90.00
2018-02-15T17:25:57.503Z,90.40
2018-02-15T17:28:25.734Z,90.20
2018-02-15T17:30:53.214Z,90.10
2018-02-15T17:33:20.717Z,90.20
2018-02-15T17:35:48.200Z,90.30
2018-02-15T17:38:15.710Z,90.30
2018-02-15T17:40:44.078Z,90.30
2018-02-15T17:43:12.354Z,90.30
2018-02-15T17:45:40.638Z,90.30
2018-02-15T17:48:09.010Z,90.30
2018-02-15T17:50:37.258Z,90.20
2018-02-15T17:53:04.738Z,90.20
2018-02-15T17:55:33.023Z,90.20
2018-02-15T17:58:01.310Z,90.20
2018-02-15T18:00:29.574Z,90.30
2018-02-15T18:02:57.955Z,90.30
2018-02-15T18:05:26.194Z,90.40
2018-02-15T18:07:53.674Z,90.40
2018-02-15T18:10:21.961Z,90.70
2018-02-15T18:12:50.206Z,90.40
2018-02-15T18:15:17.688Z,90.40
2018-02-15T18:17:45.963Z,90.50
2018-02-15T18:20:13.446Z,90.50
2018-02-15T18:22:41.694Z,90.60
2018-02-15T18:25:09.202Z,90.50
2018-02-15T18:27:36.721Z,90.50
2018-02-15T18:30:04.321Z,90.50
2018-02-15T18:32:32.682Z,90.50
2018-02-15T18:35:00.943Z,90.50
2018-02-15T18:37:28.522Z,90.50
2018-02-15T18:39:56.854Z,90.60
2018-02-15T18:42:24.343Z,90.60
2018-02-15T18:44:51.839Z,90.60
2018-02-15T18:47:19.469Z,90.60
2018-02-15T18:49:46.914Z,90.60
2018-02-15T18:52:14.397Z,90.70
2018-02-15T18:54:42.656Z,90.70
2018-02-15T18:57:10.942Z,91.10
2018-02-15T18:59:39.182Z,90.70
2018-02-15T19:02:06.779Z,90.70
2018-02-15T19:04:35.079Z,90.60
2018-02-15T19:07:02.571Z,90.60
2018-02-15T19:09:30.172Z,90.60
2018-02-15T19:11:58.448Z,90.60
2018-02-15T19:14:26.694Z,90.50
2018-02-15T19:16:54.192Z,90.50
2018-02-15T19:19:22.454Z,90.60
2018-02-15T19:21:50.701Z,90.60
2018-02-15T19:24:18.198Z,90.60
2018-02-15T19:26:46.455Z,90.60
2018-02-15T19:29:14.715Z,90.60
2018-02-15T19:31:42.210Z,90.60
2018-02-15T19:34:10.474Z,90.50
2018-02-15T19:36:38.746Z,90.70
2018-02-15T19:39:07.002Z,90.50
2018-02-15T19:41:34.541Z,90.50
2018-02-15T19:44:02.020Z,90.50
2018-02-15T19:46:29.522Z,90.60
2018-02-15T19:48:57.024Z,90.60
2018-02-15T19:51:24.535Z,90.60
2018-02-15T19:53:52.806Z,90.60
2018-02-15T19:56:21.050Z,90.60
2018-02-15T19:58:48.526Z,90.60
2018-02-15T20:01:16.841Z,90.60
2018-02-15T20:03:44.328Z,90.60
2018-02-15T20:06:11.806Z,90.60
2018-02-15T20:08:39.299Z,90.60
2018-02-15T20:11:06.802Z,90.60
2018-02-15T20:13:34.298Z,90.70
2018-02-15T20:16:02.559Z,90.70
2018-02-15T20:18:30.054Z,90.70
2018-02-15T20:20:57.587Z,90.70
2018-02-15T20:23:25.858Z,90.80
2018-02-15T20:25:59.002Z,90.70
2018-02-15T20:28:26.490Z,90.70
2018-02-15T20:30:54.103Z,90.60
2018-02-15T20:33:21.806Z,90.60
2018-02-15T20:35:49.294Z,90.60
2018-02-15T20:38:23.310Z,91.00
2018-02-15T20:40:51.579Z,90.70
2018-02-15T20:43:20.295Z,91.10
2018-02-15T20:45:47.838Z,90.70
2018-02-15T20:48:16.210Z,90.60
2018-02-15T20:50:50.220Z,90.70
2018-02-15T20:53:24.430Z,90.70
2018-02-15T20:55:51.910Z,90.70
2018-02-15T20:58:20.242Z,90.70
2018-02-15T21:00:47.734Z,90.60
2018-02-15T21:03:15.978Z,90.70
2018-02-15T21:05:43.455Z,90.80
2018-02-15T21:08:11.719Z,91.10
2018-02-15T21:10:39.330Z,90.70
2018-02-15T21:13:06.877Z,90.80
2018-02-15T21:15:34.371Z,90.80
2018-02-15T21:18:01.878Z,91.10
2018-02-15T21:20:30.162Z,90.90
2018-02-15T21:22:58.422Z,90.90
2018-02-15T21:25:25.994Z,90.90
2018-02-15T21:27:54.262Z,90.90
2018-02-15T21:30:22.527Z,90.90
2018-02-15T21:32:50.780Z,90.90
2018-02-15T21:35:18.374Z,90.90
2018-02-15T21:37:46.668Z,90.90
2018-02-15T21:40:14.490Z,90.90
2018-02-15T21:42:41.974Z,90.90
2018-02-15T21:45:10.262Z,90.90
2018-02-15T21:47:38.511Z,90.90
2018-02-15T21:50:06.010Z,91.00
2018-02-15T21:52:33.550Z,91.00
2018-02-15T21:55:01.818Z,91.00
2018-02-15T21:57:30.080Z,91.00
2018-02-15T21:59:57.595Z,91.00
2018-02-15T22:02:25.077Z,91.00
2018-02-15T22:04:52.564Z,91.00
2018-02-15T22:07:20.096Z,91.00
2018-02-15T22:09:47.587Z,91.00
2018-02-15T22:12:16.078Z,91.10
2018-02-15T22:14:43.586Z,91.10
2018-02-15T22:17:11.121Z,91.10
2018-02-15T22:19:38.573Z,91.10
2018-02-15T22:22:06.006Z,91.10
2018-02-15T22:24:33.436Z,91.10
2018-02-15T22:27:00.951Z,91.10
2018-02-15T22:29:28.392Z,91.00
2018-02-15T22:31:55.817Z,91.20
2018-02-15T22:34:24.016Z,91.10
2018-02-15T22:36:51.490Z,91.10
2018-02-15T22:39:18.952Z,91.10
2018-02-15T22:41:46.376Z,91.00
2018-02-15T22:44:14.681Z,90.90
2018-02-15T22:46:42.140Z,91.00
2018-02-15T22:49:09.603Z,91.00
2018-02-15T22:51:37.059Z,91.00
2018-02-15T22:54:04.490Z,91.00
2018-02-15T22:56:31.931Z,90.90
2018-02-15T22:59:00.137Z,90.80
2018-02-15T23:01:27.564Z,90.80
2018-02-15T23:03:55.760Z,90.70
2018-02-15T23:06:23.236Z,90.70
2018-02-15T23:08:50.662Z,90.70
2018-02-15T23:11:18.148Z,90.70
2018-02-15T23:13:45.612Z,90.70
2018-02-15T23:16:13.063Z,90.70
2018-02-15T23:18:40.558Z,90.80
2018-02-15T23:21:07.976Z,90.90
2018-02-15T23:23:35.436Z,91.10
2018-02-15T23:26:02.868Z,91.20
2018-02-15T23:28:30.352Z,91.40
2018-02-15T23:30:57.813Z,91.80
2018-02-15T23:33:25.222Z,91.50
2018-02-15T23:35:53.432Z,91.50
2018-02-15T23:38:20.865Z,91.50
2018-02-15T23:40:48.292Z,91.50
2018-02-15T23:43:15.749Z,91.50
2018-02-15T23:45:43.175Z,91.50
2018-02-15T23:48:10.615Z,91.50
2018-02-15T23:50:38.075Z,91.60
2018-02-15T23:53:05.512Z,91.60
2018-02-15T23:55:32.956Z,91.60
2018-02-15T23:58:01.174Z,91.70
